createdAt,value
2018-06-02T00:00:35.494Z,219.23
2018-06-02T00:03:15.312Z,261.07
2018-06-02T00:05:51.864Z,183.23
2018-06-02T00:08:21.364Z,288.40
2018-06-02T00:10:50.865Z,248.40
2018-06-02T00:13:20.646Z,214.30
2018-06-02T00:15:53.868Z,211.53
2018-06-02T00:18:24.884Z,194.63
2018-06-02T00:20:59.577Z,191.33
2018-06-02T00:23:35.648Z,180.50
2018-06-02T00:26:05.708Z,209.80
2018-06-02T00:28:37.841Z,188.40
2018-06-02T00:31:14.925Z,213.83
2018-06-02T00:33:49.523Z,209.37
2018-06-02T00:36:21.506Z,222.03
2018-06-02T00:39:00.434Z,212.43
2018-06-02T00:41:33.624Z,1175.87
2018-06-02T00:44:03.658Z,207.10
2018-06-02T00:46:37.227Z,207.13
2018-06-02T00:49:10.393Z,210.23
2018-06-02T00:51:44.642Z,219.23
2018-06-02T00:54:18.766Z,371.57
2018-06-02T00:56:52.263Z,199.23
2018-06-02T00:59:24.774Z,200.40
2018-06-02T01:01:55.182Z,213.03
2018-06-02T01:04:26.152Z,209.30
2018-06-02T01:06:57.326Z,432.43
2018-06-02T01:09:28.638Z,214.97
2018-06-02T01:11:59.498Z,198.23
2018-06-02T01:14:31.221Z,191.13
2018-06-02T01:17:04.006Z,197.83
2018-06-02T01:19:33.466Z,203.40
2018-06-02T01:22:06.405Z,237.03
2018-06-02T01:24:43.521Z,201.73
2018-06-02T01:27:13.167Z,229.47
2018-06-02T01:29:45.415Z,213.33
2018-06-02T01:32:14.899Z,204.87
2018-06-02T01:34:45.229Z,246.50
2018-06-02T01:37:15.377Z,253.90
2018-06-02T01:39:55.924Z,254.20
2018-06-02T01:42:33.732Z,237.13
2018-06-02T01:45:03.632Z,213.87
2018-06-02T01:47:33.205Z,201.63
2018-06-02T01:50:02.647Z,229.93
2018-06-02T01:52:32.119Z,244.20
2018-06-02T01:55:01.705Z,236.40
2018-06-02T01:57:31.773Z,247.03
2018-06-02T02:00:02.791Z,228.20
2018-06-02T02:02:36.889Z,233.33
2018-06-02T02:05:06.603Z,210.60
2018-06-02T02:07:36.116Z,208.43
2018-06-02T02:10:05.877Z,235.70
2018-06-02T02:12:35.983Z,234.27
2018-06-02T02:15:06.334Z,218.60
2018-06-02T02:17:37.949Z,211.30
2018-06-02T02:20:09.122Z,212.20
2018-06-02T02:22:44.662Z,217.80
2018-06-02T02:25:32.110Z,229.43
2018-06-02T02:28:07.236Z,236.27
2018-06-02T02:30:45.596Z,232.67
2018-06-02T02:33:17.564Z,224.63
2018-06-02T02:35:59.239Z,272.03
2018-06-02T02:38:36.157Z,228.00
2018-06-02T02:41:08.427Z,248.50
2018-06-02T02:43:54.263Z,228.27
2018-06-02T02:46:24.220Z,223.63
2018-06-02T02:48:54.662Z,226.57
2018-06-02T02:51:33.797Z,227.20
2018-06-02T02:54:15.385Z,231.63
2018-06-02T02:56:48.955Z,211.43
2018-06-02T02:59:19.334Z,211.67
2018-06-02T03:01:49.462Z,218.37
2018-06-02T03:04:20.318Z,228.97
2018-06-02T03:06:50.381Z,230.33
2018-06-02T03:09:20.006Z,235.40
2018-06-02T03:11:49.640Z,246.03
2018-06-02T03:14:19.234Z,227.20
2018-06-02T03:16:49.659Z,230.33
2018-06-02T03:19:19.853Z,228.07
2018-06-02T03:21:49.269Z,218.83
2018-06-02T03:24:18.995Z,218.07
2018-06-02T03:26:49.085Z,254.73
2018-06-02T03:29:19.085Z,249.57
2018-06-02T03:31:48.753Z,251.47
2018-06-02T03:34:18.682Z,232.67
2018-06-02T03:36:48.103Z,244.27
2018-06-02T03:39:17.952Z,266.73
2018-06-02T03:41:47.378Z,227.60
2018-06-02T03:44:17.900Z,266.37
2018-06-02T03:46:48.349Z,307.00
2018-06-02T03:49:17.789Z,238.13
2018-06-02T03:51:47.030Z,246.97
2018-06-02T03:54:16.585Z,223.40
2018-06-02T03:56:46.543Z,240.40
2018-06-02T03:59:16.063Z,229.60
2018-06-02T04:01:47.679Z,235.50
2018-06-02T04:04:17.376Z,214.07
2018-06-02T04:06:47.090Z,227.43
2018-06-02T04:09:17.440Z,223.67
2018-06-02T04:11:46.819Z,238.70
2018-06-02T04:14:16.253Z,231.30
2018-06-02T04:16:45.664Z,257.30
2018-06-02T04:19:15.724Z,241.40
2018-06-02T04:21:45.481Z,235.90
2018-06-02T04:24:15.724Z,233.87
2018-06-02T04:26:46.639Z,242.00
2018-06-02T04:29:16.658Z,251.97
2018-06-02T04:31:48.279Z,246.73
2018-06-02T04:34:17.691Z,241.80
2018-06-02T04:36:47.226Z,230.83
2018-06-02T04:39:17.345Z,231.43
2018-06-02T04:41:46.833Z,223.17
2018-06-02T04:44:16.587Z,222.37
2018-06-02T04:46:46.707Z,245.37
2018-06-02T04:49:16.916Z,253.50
2018-06-02T04:51:46.311Z,298.10
2018-06-02T04:54:18.232Z,289.67
2018-06-02T04:56:47.933Z,308.90
2018-06-02T04:59:17.376Z,314.57
2018-06-02T05:01:46.794Z,325.97
2018-06-02T05:04:16.508Z,315.80
2018-06-02T05:06:46.590Z,288.10
2018-06-02T05:09:16.606Z,303.03
2018-06-02T05:11:46.110Z,319.23
2018-06-02T05:14:15.647Z,303.27
2018-06-02T05:16:45.776Z,263.93
2018-06-02T05:19:15.518Z,247.47
2018-06-02T05:21:45.860Z,252.37
2018-06-02T05:24:15.581Z,227.37
2018-06-02T05:26:46.216Z,223.83
2018-06-02T05:29:15.829Z,222.27
2018-06-02T05:31:45.475Z,227.17
2018-06-02T05:34:15.576Z,223.87
2018-06-02T05:36:44.922Z,207.30
2018-06-02T05:39:14.224Z,210.70
2018-06-02T05:41:44.259Z,182.53
2018-06-02T05:44:13.607Z,174.67
2018-06-02T05:46:43.162Z,163.90
2018-06-02T05:49:12.669Z,158.00
2018-06-02T05:51:42.207Z,143.80
2018-06-02T05:54:11.680Z,119.30
2018-06-02T05:56:41.876Z,150.00
2018-06-02T05:59:11.936Z,115.40
2018-06-02T06:01:41.397Z,123.13
2018-06-02T06:04:11.598Z,121.83
2018-06-02T06:06:40.998Z,108.73
2018-06-02T06:09:10.507Z,115.20
2018-06-02T06:11:39.974Z,95.43
2018-06-02T06:14:09.878Z,91.87
2018-06-02T06:16:39.317Z,74.27
2018-06-02T06:19:09.732Z,81.33
2018-06-02T06:21:39.126Z,73.77
2018-06-02T06:24:08.537Z,86.53
2018-06-02T06:26:37.985Z,81.63
2018-06-02T06:29:08.238Z,71.73
2018-06-02T06:31:37.607Z,65.17
2018-06-02T06:34:07.846Z,70.47
2018-06-02T06:36:37.800Z,75.20
2018-06-02T06:39:07.281Z,75.60
2018-06-02T06:41:36.766Z,74.77
2018-06-02T06:44:07.490Z,65.27
2018-06-02T06:46:37.742Z,67.10
2018-06-02T06:49:07.555Z,70.23
2018-06-02T06:51:37.289Z,66.43
2018-06-02T06:54:07.977Z,63.70
2018-06-02T06:56:37.527Z,65.00
2018-06-02T06:59:07.163Z,67.43
2018-06-02T07:01:38.368Z,53.07
2018-06-02T07:04:08.638Z,58.53
2018-06-02T07:06:38.217Z,64.17
2018-06-02T07:09:07.722Z,53.43
2018-06-02T07:11:37.161Z,64.33
2018-06-02T07:14:06.726Z,54.47
2018-06-02T07:16:36.618Z,75.27
2018-06-02T07:19:06.016Z,45.77
2018-06-02T07:21:35.541Z,44.00
2018-06-02T07:24:05.035Z,41.90
2018-06-02T07:26:34.798Z,40.20
2018-06-02T07:29:04.297Z,43.30
2018-06-02T07:31:35.138Z,40.83
2018-06-02T07:34:04.772Z,39.83
2018-06-02T07:36:36.633Z,36.47
2018-06-02T07:39:07.358Z,47.20
2018-06-02T07:41:37.716Z,33.43
2018-06-02T07:44:07.802Z,70.20
2018-06-02T07:46:38.647Z,37.03
2018-06-02T07:49:09.249Z,35.73
2018-06-02T07:51:38.879Z,32.97
2018-06-02T07:54:10.018Z,30.97
2018-06-02T07:56:40.648Z,31.53
2018-06-02T07:59:10.874Z,39.23
2018-06-02T08:01:41.211Z,44.77
2018-06-02T08:04:11.284Z,41.00
2018-06-02T08:06:41.306Z,43.30
2018-06-02T08:09:12.178Z,43.87
2018-06-02T08:11:42.597Z,38.67
2018-06-02T08:14:13.316Z,93.10
2018-06-02T08:16:44.279Z,36.73
2018-06-02T08:19:14.769Z,41.43
2018-06-02T08:21:44.331Z,35.83
2018-06-02T08:24:14.142Z,48.93
2018-06-02T08:26:51.920Z,42.50
2018-06-02T08:29:34.669Z,32.13
2018-06-02T08:32:06.632Z,42.60
2018-06-02T08:34:37.521Z,39.40
2018-06-02T08:37:11.369Z,38.00
2018-06-02T08:39:44.368Z,49.23
2018-06-02T08:42:27.234Z,34.60
2018-06-02T08:44:56.980Z,29.33
2018-06-02T08:47:35.767Z,28.37
2018-06-02T08:50:06.845Z,27.80
2018-06-02T08:52:36.445Z,26.33
2018-06-02T08:55:06.846Z,19.73
2018-06-02T08:57:36.491Z,15.33
2018-06-02T09:00:13.193Z,18.40
2018-06-02T09:02:44.450Z,16.27
2018-06-02T09:05:15.523Z,16.23
2018-06-02T09:07:45.221Z,17.30
2018-06-02T09:10:21.792Z,17.27
2018-06-02T09:12:51.445Z,14.77
2018-06-02T09:15:26.899Z,18.17
2018-06-02T09:17:57.670Z,19.30
2018-06-02T09:20:27.369Z,22.13
2018-06-02T09:23:12.678Z,25.63
2018-06-02T09:25:49.071Z,23.83
2018-06-02T09:28:32.623Z,15.43
2018-06-02T09:31:02.996Z,21.00
2018-06-02T09:33:33.161Z,21.97
2018-06-02T09:36:02.955Z,22.70
2018-06-02T09:38:34.219Z,17.07
2018-06-02T09:41:04.429Z,17.60
2018-06-02T09:43:33.923Z,18.80
2018-06-02T09:46:27.515Z,17.80
2018-06-02T09:49:12.222Z,12.60
2018-06-02T09:51:45.173Z,11.40
2018-06-02T09:54:14.860Z,19.50
2018-06-02T09:56:46.858Z,13.87
2018-06-02T09:59:16.378Z,16.83
2018-06-02T10:01:48.418Z,17.13
2018-06-02T10:04:21.419Z,11.30
2018-06-02T10:06:57.726Z,12.03
2018-06-02T10:09:36.697Z,13.10
2018-06-02T10:12:06.779Z,14.23
2018-06-02T10:14:37.501Z,12.87
2018-06-02T10:17:07.060Z,11.20
2018-06-02T10:19:36.609Z,26.23
2018-06-02T10:22:06.128Z,12.93
2018-06-02T10:24:35.495Z,14.50
2018-06-02T10:27:05.098Z,21.03
2018-06-02T10:29:34.651Z,9.73
2018-06-02T10:32:04.936Z,13.23
2018-06-02T10:34:34.522Z,13.20
2018-06-02T10:37:04.033Z,11.80
2018-06-02T10:39:33.521Z,9.70
2018-06-02T10:42:03.083Z,19.73
2018-06-02T10:44:33.002Z,13.87
2018-06-02T10:47:02.478Z,12.80
2018-06-02T10:49:32.941Z,10.23
2018-06-02T10:52:03.757Z,8.23
2018-06-02T10:54:39.196Z,10.97
2018-06-02T10:57:24.951Z,12.10
2018-06-02T11:00:03.855Z,12.13
2018-06-02T11:02:33.900Z,12.50
2018-06-02T11:05:03.610Z,14.07
2018-06-02T11:07:33.113Z,11.30
2018-06-02T11:10:04.379Z,15.60
2018-06-02T11:12:33.939Z,10.33
2018-06-02T11:15:14.829Z,13.90
2018-06-02T11:17:55.404Z,15.90
2018-06-02T11:20:25.209Z,14.53
2018-06-02T11:22:54.737Z,10.40
2018-06-02T11:25:24.256Z,15.30
2018-06-02T11:27:53.704Z,10.20
2018-06-02T11:30:28.622Z,15.17
2018-06-02T11:32:58.970Z,11.93
2018-06-02T11:35:28.506Z,12.40
2018-06-02T11:37:59.802Z,7.30
2018-06-02T11:40:30.226Z,10.37
2018-06-02T11:43:01.690Z,9.00
2018-06-02T11:45:32.169Z,10.73
2018-06-02T11:48:01.673Z,8.60
2018-06-02T11:50:31.469Z,10.50
2018-06-02T11:53:01.621Z,4.70
2018-06-02T11:55:36.703Z,11.10
2018-06-02T11:58:06.627Z,7.23
2018-06-02T12:00:37.336Z,7.43
2018-06-02T12:03:07.051Z,9.70
2018-06-02T12:05:37.391Z,7.70
2018-06-02T12:08:16.662Z,7.73
2018-06-02T12:10:53.363Z,5.23
2018-06-02T12:13:23.069Z,6.00
2018-06-02T12:15:52.785Z,8.97
2018-06-02T12:18:29.824Z,9.33
2018-06-02T12:21:07.502Z,8.13
2018-06-02T12:23:49.718Z,4.90
2018-06-02T12:26:34.744Z,13.03
2018-06-02T12:29:07.709Z,23.20
2018-06-02T12:31:38.617Z,5.67
2018-06-02T12:36:54.337Z,9.43
2018-06-02T12:39:27.592Z,4.90
2018-06-02T12:42:00.757Z,4.53
2018-06-02T12:44:38.273Z,3.80
2018-06-02T12:47:43.833Z,6.77
2018-06-02T12:50:36.017Z,8.40
2018-06-02T12:56:37.050Z,11.73
2018-06-02T12:59:10.801Z,5.20
2018-06-02T13:01:42.117Z,14.03
2018-06-02T13:04:11.659Z,25.60
2018-06-02T13:06:42.031Z,6.90
2018-06-02T13:09:11.801Z,8.03
2018-06-02T13:11:43.566Z,6.00
2018-06-02T13:14:13.180Z,11.43
2018-06-02T13:16:48.604Z,7.80
2018-06-02T13:19:19.738Z,11.30
2018-06-02T13:21:49.531Z,5.93
2018-06-02T13:24:19.216Z,7.67
2018-06-02T13:26:48.780Z,8.50
2018-06-02T13:29:18.353Z,9.10
2018-06-02T13:31:48.323Z,80.37
2018-06-02T13:34:20.813Z,5.87
2018-06-02T13:36:50.897Z,7.47
2018-06-02T13:39:21.614Z,7.77
2018-06-02T13:41:51.504Z,8.37
2018-06-02T13:44:23.825Z,16.00
2018-06-02T13:46:53.900Z,27.70
2018-06-02T13:49:24.931Z,12.57
2018-06-02T13:51:54.692Z,12.83
2018-06-02T13:54:25.090Z,14.17
2018-06-02T13:56:57.091Z,13.00
2018-06-02T13:59:27.022Z,9.00
2018-06-02T14:01:57.520Z,9.87
2018-06-02T14:04:27.078Z,8.00
2018-06-02T14:07:04.636Z,20.63
2018-06-02T14:09:35.033Z,10.90
2018-06-02T14:12:05.091Z,11.20
2018-06-02T14:14:36.651Z,5.57
2018-06-02T14:17:07.179Z,7.77
2018-06-02T14:19:37.573Z,6.23
2018-06-02T14:22:08.897Z,9.07
2018-06-02T14:24:38.694Z,9.50
2018-06-02T14:27:08.923Z,8.20
2018-06-02T14:29:39.504Z,16.33
2018-06-02T14:32:11.141Z,9.60
2018-06-02T14:35:05.881Z,8.37
2018-06-02T14:37:50.641Z,14.90
2018-06-02T14:40:21.162Z,16.77
2018-06-02T14:42:53.250Z,7.83
2018-06-02T14:45:23.420Z,7.70
2018-06-02T14:47:57.666Z,6.83
2018-06-02T14:50:27.489Z,15.63
2018-06-02T14:52:58.238Z,11.23
2018-06-02T14:55:28.296Z,7.37
2018-06-02T14:57:57.942Z,16.77
2018-06-02T15:00:32.860Z,11.70
2018-06-02T15:03:08.223Z,8.80
2018-06-02T15:05:38.198Z,5.03
2018-06-02T15:08:08.002Z,4.50
2018-06-02T15:10:37.961Z,5.43
2018-06-02T15:13:08.829Z,9.53
2018-06-02T15:15:42.026Z,7.90
2018-06-02T15:18:11.880Z,4.10
2018-06-02T15:20:41.956Z,7.00
2018-06-02T15:23:11.903Z,9.17
2018-06-02T15:25:43.809Z,5.33
2018-06-02T15:28:13.971Z,5.50
2018-06-02T15:30:43.761Z,19.63
2018-06-02T15:33:14.897Z,15.53
2018-06-02T15:35:44.764Z,17.00
2018-06-02T15:38:15.560Z,11.70
2018-06-02T15:40:44.972Z,15.73
2018-06-02T15:43:14.436Z,8.63
2018-06-02T15:45:47.528Z,48.93
2018-06-02T15:48:17.383Z,21.40
2018-06-02T15:50:47.121Z,17.33
2018-06-02T15:53:16.879Z,6.93
2018-06-02T15:55:47.496Z,7.90
2018-06-02T15:58:18.094Z,13.40
2018-06-02T16:00:48.725Z,7.90
2018-06-02T16:03:22.384Z,12.07
2018-06-02T16:05:53.456Z,7.70
2018-06-02T16:08:25.120Z,9.70
2018-06-02T16:10:55.091Z,9.43
2018-06-02T16:13:30.220Z,14.43
2018-06-02T16:16:07.821Z,21.37
2018-06-02T16:18:44.463Z,9.83
2018-06-02T16:21:14.127Z,9.27
2018-06-02T16:23:44.825Z,13.73
2018-06-02T16:26:15.549Z,8.83
2018-06-02T16:28:46.044Z,32.43
2018-06-02T16:31:16.774Z,12.40
2018-06-02T16:33:46.594Z,19.47
2018-06-02T16:36:17.481Z,13.83
2018-06-02T16:38:49.256Z,19.13
2018-06-02T16:41:21.894Z,13.67
2018-06-02T16:43:54.668Z,13.87
2018-06-02T16:46:24.891Z,9.67
2018-06-02T16:48:58.874Z,12.13
2018-06-02T16:51:29.222Z,10.63
2018-06-02T16:54:04.648Z,8.87
2018-06-02T16:56:36.058Z,16.90
2018-06-02T16:59:14.395Z,89.50
2018-06-02T17:02:29.368Z,19.53
2018-06-02T17:05:34.019Z,16.83
2018-06-02T17:08:19.963Z,9.53
2018-06-02T17:11:19.501Z,7.77
2018-06-02T17:14:25.069Z,15.47
2018-06-02T17:17:37.781Z,10.43
2018-06-02T17:23:56.855Z,8.27
2018-06-02T17:26:38.254Z,8.40
2018-06-02T17:29:15.133Z,8.97
2018-06-02T17:31:48.516Z,6.50
2018-06-02T17:34:45.338Z,30.07
2018-06-02T17:37:33.976Z,14.43
2018-06-02T17:40:12.956Z,18.37
2018-06-02T17:42:47.178Z,14.40
2018-06-02T17:45:22.753Z,6.13
2018-06-02T17:48:24.103Z,12.93
2018-06-02T18:08:13.844Z,9.40
2018-06-02T18:20:22.018Z,26.30
2018-06-02T18:30:16.127Z,132.30
2018-06-02T18:36:09.216Z,24.13
2018-06-02T18:39:02.068Z,27.73
2018-06-02T18:45:30.775Z,19.73
2018-06-02T18:48:28.955Z,24.60
2018-06-02T18:51:28.425Z,47.60
2018-06-02T18:57:09.452Z,28.30
2018-06-02T19:12:21.126Z,27.60
2018-06-02T19:25:02.943Z,23.23
2018-06-02T19:31:22.766Z,16.07
2018-06-02T19:47:25.104Z,11.13
2018-06-02T19:57:41.594Z,59.03
2018-06-02T20:03:12.762Z,33.13
2018-06-02T20:08:41.771Z,18.43
2018-06-02T20:11:25.068Z,29.00
2018-06-02T20:17:09.120Z,37.97
2018-06-02T20:23:14.181Z,40.87
2018-06-02T20:29:47.986Z,63.27
2018-06-02T20:51:52.265Z,23.03
2018-06-02T20:55:16.237Z,36.13
2018-06-02T21:15:28.331Z,70.40
2018-06-02T21:25:55.596Z,216.17
2018-06-02T22:00:04.065Z,55.50
2018-06-02T22:14:23.753Z,53.67
2018-06-02T22:17:36.475Z,53.67
2018-06-02T22:47:40.957Z,85.20
2018-06-02T23:11:40.819Z,73.57
2018-06-02T23:14:24.143Z,94.43
2018-06-02T23:20:44.982Z,133.37
2018-06-02T23:23:34.414Z,122.40
2018-06-02T23:26:15.244Z,42.33
2018-06-02T23:29:00.118Z,97.47
2018-06-02T23:31:34.094Z,37.37
2018-06-02T23:36:52.926Z,48.47
2018-06-02T23:39:51.424Z,62.00
2018-06-02T23:42:28.780Z,34.53
2018-06-02T23:45:00.555Z,91.30
2018-06-02T23:47:43.213Z,72.13
2018-06-02T23:50:21.078Z,41.17
2018-06-02T23:55:48.395Z,35.90
2018-06-02T23:59:03.662Z,38.47
